sensor_id;sensor_type;location;lat;lon;timestamp;P1;durP1;ratioP1;P2;durP2;ratioP2
3573;SDS011;1801;51.050;6.246;2023-09-18T00:01:30;13.33;;;5.80;;
3573;SDS011;1801;51.050;6.246;2023-09-18T00:03:56;16.03;;;6.37;;
3573;SDS011;1801;51.050;6.246;2023-09-18T00:06:21;12.67;;;5.10;;
3573;SDS011;1801;51.050;6.246;2023-09-18T00:08:48;9.50;;;5.53;;
3573;SDS011;1801;51.050;6.246;2023-09-18T00:11:15;11.83;;;5.63;;
3573;SDS011;1801;51.050;6.246;2023-09-18T00:13:40;13.07;;;5.33;;
3573;SDS011;1801;51.050;6.246;2023-09-18T00:16:05;10.57;;;6.27;;
3573;SDS011;1801;51.050;6.246;2023-09-18T00:18:30;9.80;;;5.30;;
3573;SDS011;1801;51.050;6.246;2023-09-18T00:20:56;13.23;;;5.70;;
3573;SDS011;1801;51.050;6.246;2023-09-18T00:23:21;12.53;;;5.40;;
3573;SDS011;1801;51.050;6.246;2023-09-18T00:25:46;10.73;;;6.10;;
3573;SDS011;1801;51.050;6.246;2023-09-18T00:28:11;10.83;;;6.03;;
3573;SDS011;1801;51.050;6.246;2023-09-18T00:30:37;14.43;;;5.50;;
3573;SDS011;1801;51.050;6.246;2023-09-18T00:33:03;10.53;;;6.20;;
3573;SDS011;1801;51.050;6.246;2023-09-18T00:35:28;12.90;;;6.60;;
3573;SDS011;1801;51.050;6.246;2023-09-18T00:37:53;15.93;;;6.43;;
3573;SDS011;1801;51.050;6.246;2023-09-18T00:40:18;12.07;;;5.40;;
3573;SDS011;1801;51.050;6.246;2023-09-18T00:42:44;12.73;;;5.90;;
3573;SDS011;1801;51.050;6.246;2023-09-18T00:45:09;10.37;;;5.17;;
3573;SDS011;1801;51.050;6.246;2023-09-18T00:47:35;14.07;;;6.47;;
3573;SDS011;1801;51.050;6.246;2023-09-18T00:50:01;10.47;;;6.40;;
3573;SDS011;1801;51.050;6.246;2023-09-18T00:52:27;8.47;;;5.90;;
3573;SDS011;1801;51.050;6.246;2023-09-18T00:54:52;10.07;;;6.07;;
3573;SDS011;1801;51.050;6.246;2023-09-18T00:57:18;12.57;;;6.37;;
3573;SDS011;1801;51.050;6.246;2023-09-18T00:59:44;7.37;;;5.17;;
3573;SDS011;1801;51.050;6.246;2023-09-18T01:02:09;10.80;;;6.20;;
3573;SDS011;1801;51.050;6.246;2023-09-18T01:04:34;10.50;;;5.97;;
3573;SDS011;1801;51.050;6.246;2023-09-18T01:07:00;9.00;;;5.90;;
3573;SDS011;1801;51.050;6.246;2023-09-18T01:09:28;9.30;;;6.00;;
3573;SDS011;1801;51.050;6.246;2023-09-18T01:14:32;11.33;;;6.40;;
3573;SDS011;1801;51.050;6.246;2023-09-18T01:16:59;9.63;;;6.47;;
3573;SDS011;1801;51.050;6.246;2023-09-18T01:19:42;12.50;;;5.87;;
3573;SDS011;1801;51.050;6.246;2023-09-18T01:22:10;10.40;;;6.20;;
3573;SDS011;1801;51.050;6.246;2023-09-18T01:24:36;11.53;;;6.10;;
3573;SDS011;1801;51.050;6.246;2023-09-18T01:27:02;10.20;;;6.10;;
3573;SDS011;1801;51.050;6.246;2023-09-18T01:29:31;23.50;;;7.63;;
3573;SDS011;1801;51.050;6.246;2023-09-18T01:31:56;14.63;;;6.07;;
3573;SDS011;1801;51.050;6.246;2023-09-18T01:34:23;7.50;;;6.03;;
3573;SDS011;1801;51.050;6.246;2023-09-18T01:36:49;14.73;;;6.43;;
3573;SDS011;1801;51.050;6.246;2023-09-18T01:39:15;9.23;;;6.00;;
3573;SDS011;1801;51.050;6.246;2023-09-18T01:41:40;10.53;;;6.30;;
3573;SDS011;1801;51.050;6.246;2023-09-18T01:44:06;7.33;;;5.60;;
3573;SDS011;1801;51.050;6.246;2023-09-18T01:46:32;11.93;;;6.07;;
3573;SDS011;1801;51.050;6.246;2023-09-18T01:49:01;7.57;;;5.40;;
3573;SDS011;1801;51.050;6.246;2023-09-18T01:51:26;15.00;;;6.03;;
3573;SDS011;1801;51.050;6.246;2023-09-18T01:53:51;17.33;;;6.13;;
3573;SDS011;1801;51.050;6.246;2023-09-18T01:56:17;15.83;;;6.23;;
3573;SDS011;1801;51.050;6.246;2023-09-18T01:58:42;13.57;;;5.63;;
3573;SDS011;1801;51.050;6.246;2023-09-18T02:01:07;9.50;;;5.90;;
3573;SDS011;1801;51.050;6.246;2023-09-18T02:03:32;13.57;;;6.77;;
3573;SDS011;1801;51.050;6.246;2023-09-18T02:05:57;11.47;;;5.63;;
3573;SDS011;1801;51.050;6.246;2023-09-18T02:08:23;13.80;;;5.90;;
3573;SDS011;1801;51.050;6.246;2023-09-18T02:10:48;10.47;;;5.87;;
3573;SDS011;1801;51.050;6.246;2023-09-18T02:13:13;12.10;;;6.40;;
3573;SDS011;1801;51.050;6.246;2023-09-18T02:15:38;11.00;;;5.93;;
3573;SDS011;1801;51.050;6.246;2023-09-18T02:18:04;11.67;;;6.07;;
3573;SDS011;1801;51.050;6.246;2023-09-18T02:20:29;18.13;;;6.47;;
3573;SDS011;1801;51.050;6.246;2023-09-18T02:22:54;9.57;;;5.90;;
3573;SDS011;1801;51.050;6.246;2023-09-18T02:25:19;14.23;;;6.17;;
3573;SDS011;1801;51.050;6.246;2023-09-18T02:27:45;12.80;;;5.63;;
3573;SDS011;1801;51.050;6.246;2023-09-18T02:30:10;11.10;;;6.00;;
3573;SDS011;1801;51.050;6.246;2023-09-18T02:32:36;11.87;;;7.67;;
3573;SDS011;1801;51.050;6.246;2023-09-18T02:35:01;13.50;;;6.53;;
3573;SDS011;1801;51.050;6.246;2023-09-18T02:37:27;9.67;;;6.27;;
3573;SDS011;1801;51.050;6.246;2023-09-18T02:39:54;9.50;;;6.20;;
3573;SDS011;1801;51.050;6.246;2023-09-18T02:42:19;17.13;;;6.90;;
3573;SDS011;1801;51.050;6.246;2023-09-18T02:44:44;14.40;;;7.07;;
3573;SDS011;1801;51.050;6.246;2023-09-18T02:47:09;10.50;;;6.30;;
3573;SDS011;1801;51.050;6.246;2023-09-18T02:49:34;9.03;;;5.17;;
3573;SDS011;1801;51.050;6.246;2023-09-18T02:51:59;19.33;;;5.90;;
3573;SDS011;1801;51.050;6.246;2023-09-18T02:54:25;12.37;;;4.77;;
3573;SDS011;1801;51.050;6.246;2023-09-18T02:56:50;10.80;;;5.20;;
3573;SDS011;1801;51.050;6.246;2023-09-18T02:59:15;13.80;;;6.30;;
3573;SDS011;1801;51.050;6.246;2023-09-18T03:01:40;11.77;;;5.30;;
3573;SDS011;1801;51.050;6.246;2023-09-18T03:04:05;14.63;;;5.40;;
3573;SDS011;1801;51.050;6.246;2023-09-18T03:06:31;8.30;;;4.90;;
3573;SDS011;1801;51.050;6.246;2023-09-18T03:08:57;14.43;;;4.90;;
3573;SDS011;1801;51.050;6.246;2023-09-18T03:11:22;10.73;;;5.30;;
3573;SDS011;1801;51.050;6.246;2023-09-18T03:13:52;16.20;;;5.60;;
3573;SDS011;1801;51.050;6.246;2023-09-18T03:16:17;11.70;;;5.30;;
3573;SDS011;1801;51.050;6.246;2023-09-18T03:18:42;14.60;;;5.47;;
3573;SDS011;1801;51.050;6.246;2023-09-18T03:21:07;13.00;;;5.53;;
3573;SDS011;1801;51.050;6.246;2023-09-18T03:23:33;9.30;;;4.70;;
3573;SDS011;1801;51.050;6.246;2023-09-18T03:25:58;15.53;;;5.20;;
3573;SDS011;1801;51.050;6.246;2023-09-18T03:28:24;16.50;;;5.63;;
3573;SDS011;1801;51.050;6.246;2023-09-18T03:30:50;19.47;;;5.27;;
3573;SDS011;1801;51.050;6.246;2023-09-18T03:33:15;8.57;;;4.20;;
3573;SDS011;1801;51.050;6.246;2023-09-18T03:35:49;11.50;;;4.97;;
3573;SDS011;1801;51.050;6.246;2023-09-18T03:38:15;13.27;;;6.10;;
3573;SDS011;1801;51.050;6.246;2023-09-18T03:40:40;12.73;;;4.90;;
3573;SDS011;1801;51.050;6.246;2023-09-18T03:43:06;10.27;;;4.90;;
3573;SDS011;1801;51.050;6.246;2023-09-18T03:45:32;14.20;;;5.63;;
3573;SDS011;1801;51.050;6.246;2023-09-18T03:47:57;12.50;;;4.70;;
3573;SDS011;1801;51.050;6.246;2023-09-18T03:50:22;13.70;;;4.83;;
3573;SDS011;1801;51.050;6.246;2023-09-18T03:52:47;12.30;;;4.67;;
3573;SDS011;1801;51.050;6.246;2023-09-18T03:55:12;12.17;;;5.20;;
3573;SDS011;1801;51.050;6.246;2023-09-18T03:57:38;11.47;;;4.50;;
3573;SDS011;1801;51.050;6.246;2023-09-18T04:00:04;15.00;;;5.13;;
3573;SDS011;1801;51.050;6.246;2023-09-18T04:02:29;16.07;;;4.70;;
3573;SDS011;1801;51.050;6.246;2023-09-18T04:04:55;7.87;;;4.63;;
3573;SDS011;1801;51.050;6.246;2023-09-18T04:07:20;14.73;;;4.60;;
3573;SDS011;1801;51.050;6.246;2023-09-18T04:09:45;17.70;;;5.33;;
3573;SDS011;1801;51.050;6.246;2023-09-18T04:12:11;10.83;;;5.27;;
3573;SDS011;1801;51.050;6.246;2023-09-18T04:14:36;12.60;;;5.27;;
3573;SDS011;1801;51.050;6.246;2023-09-18T04:17:01;11.70;;;6.07;;
3573;SDS011;1801;51.050;6.246;2023-09-18T04:19:27;19.53;;;5.40;;
3573;SDS011;1801;51.050;6.246;2023-09-18T04:21:52;9.83;;;4.60;;
3573;SDS011;1801;51.050;6.246;2023-09-18T04:24:17;14.63;;;5.07;;
3573;SDS011;1801;51.050;6.246;2023-09-18T04:26:42;18.37;;;4.87;;
3573;SDS011;1801;51.050;6.246;2023-09-18T04:29:08;22.07;;;4.10;;
3573;SDS011;1801;51.050;6.246;2023-09-18T04:31:33;15.60;;;4.17;;
3573;SDS011;1801;51.050;6.246;2023-09-18T04:33:59;21.37;;;5.40;;
3573;SDS011;1801;51.050;6.246;2023-09-18T04:36:24;13.20;;;3.67;;
3573;SDS011;1801;51.050;6.246;2023-09-18T04:38:50;10.43;;;4.00;;
3573;SDS011;1801;51.050;6.246;2023-09-18T04:41:15;10.50;;;3.97;;
3573;SDS011;1801;51.050;6.246;2023-09-18T04:43:40;6.00;;;3.10;;
3573;SDS011;1801;51.050;6.246;2023-09-18T04:46:06;9.37;;;3.10;;
3573;SDS011;1801;51.050;6.246;2023-09-18T04:48:32;6.10;;;3.17;;
3573;SDS011;1801;51.050;6.246;2023-09-18T04:50:57;6.13;;;2.27;;
3573;SDS011;1801;51.050;6.246;2023-09-18T04:53:23;6.43;;;3.10;;
3573;SDS011;1801;51.050;6.246;2023-09-18T04:55:48;9.43;;;2.67;;
3573;SDS011;1801;51.050;6.246;2023-09-18T04:58:15;5.13;;;3.50;;
3573;SDS011;1801;51.050;6.246;2023-09-18T05:00:40;4.90;;;3.20;;
3573;SDS011;1801;51.050;6.246;2023-09-18T05:03:06;4.70;;;2.00;;
3573;SDS011;1801;51.050;6.246;2023-09-18T05:05:33;5.73;;;2.23;;
3573;SDS011;1801;51.050;6.246;2023-09-18T05:07:58;4.30;;;2.13;;
3573;SDS011;1801;51.050;6.246;2023-09-18T05:10:23;6.53;;;2.30;;
3573;SDS011;1801;51.050;6.246;2023-09-18T05:12:48;7.93;;;2.27;;
3573;SDS011;1801;51.050;6.246;2023-09-18T05:15:15;2.87;;;1.93;;
3573;SDS011;1801;51.050;6.246;2023-09-18T05:17:42;5.60;;;2.17;;
3573;SDS011;1801;51.050;6.246;2023-09-18T05:20:08;6.13;;;2.03;;
3573;SDS011;1801;51.050;6.246;2023-09-18T05:22:36;5.40;;;2.13;;
3573;SDS011;1801;51.050;6.246;2023-09-18T05:25:01;5.67;;;2.40;;
3573;SDS011;1801;51.050;6.246;2023-09-18T05:27:27;6.63;;;2.60;;
3573;SDS011;1801;51.050;6.246;2023-09-18T05:29:52;5.27;;;1.93;;
3573;SDS011;1801;51.050;6.246;2023-09-18T05:32:17;7.77;;;1.77;;
3573;SDS011;1801;51.050;6.246;2023-09-18T05:34:42;3.77;;;2.10;;
3573;SDS011;1801;51.050;6.246;2023-09-18T05:37:07;7.57;;;2.03;;
3573;SDS011;1801;51.050;6.246;2023-09-18T05:39:32;3.10;;;1.80;;
3573;SDS011;1801;51.050;6.246;2023-09-18T05:41:58;5.07;;;1.93;;
3573;SDS011;1801;51.050;6.246;2023-09-18T05:44:23;5.63;;;2.57;;
3573;SDS011;1801;51.050;6.246;2023-09-18T05:46:48;7.33;;;1.60;;
3573;SDS011;1801;51.050;6.246;2023-09-18T05:49:14;8.30;;;1.93;;
3573;SDS011;1801;51.050;6.246;2023-09-18T05:51:39;5.47;;;1.43;;
3573;SDS011;1801;51.050;6.246;2023-09-18T05:54:04;9.13;;;2.30;;
3573;SDS011;1801;51.050;6.246;2023-09-18T05:56:30;4.50;;;2.40;;
3573;SDS011;1801;51.050;6.246;2023-09-18T05:58:55;5.17;;;2.50;;
3573;SDS011;1801;51.050;6.246;2023-09-18T06:01:20;7.53;;;2.63;;
3573;SDS011;1801;51.050;6.246;2023-09-18T06:03:45;6.23;;;1.77;;
3573;SDS011;1801;51.050;6.246;2023-09-18T06:06:10;5.87;;;1.77;;
3573;SDS011;1801;51.050;6.246;2023-09-18T06:08:36;2.60;;;1.57;;
3573;SDS011;1801;51.050;6.246;2023-09-18T06:11:01;3.63;;;1.70;;
3573;SDS011;1801;51.050;6.246;2023-09-18T06:13:27;4.27;;;1.90;;
3573;SDS011;1801;51.050;6.246;2023-09-18T06:15:53;4.30;;;1.57;;
3573;SDS011;1801;51.050;6.246;2023-09-18T06:18:19;9.13;;;3.07;;
3573;SDS011;1801;51.050;6.246;2023-09-18T06:20:45;3.37;;;1.97;;
3573;SDS011;1801;51.050;6.246;2023-09-18T06:23:10;4.73;;;1.93;;
3573;SDS011;1801;51.050;6.246;2023-09-18T06:25:36;6.33;;;2.17;;
3573;SDS011;1801;51.050;6.246;2023-09-18T06:28:02;10.40;;;2.00;;
3573;SDS011;1801;51.050;6.246;2023-09-18T06:30:28;2.63;;;1.40;;
3573;SDS011;1801;51.050;6.246;2023-09-18T06:32:55;4.63;;;1.53;;
3573;SDS011;1801;51.050;6.246;2023-09-18T06:35:21;5.53;;;1.80;;
3573;SDS011;1801;51.050;6.246;2023-09-18T06:37:46;4.00;;;2.50;;
3573;SDS011;1801;51.050;6.246;2023-09-18T06:40:11;9.13;;;2.10;;
3573;SDS011;1801;51.050;6.246;2023-09-18T06:42:36;4.53;;;1.70;;
3573;SDS011;1801;51.050;6.246;2023-09-18T06:45:02;4.70;;;1.40;;
3573;SDS011;1801;51.050;6.246;2023-09-18T06:47:28;7.20;;;2.03;;
3573;SDS011;1801;51.050;6.246;2023-09-18T06:49:53;5.23;;;1.93;;
3573;SDS011;1801;51.050;6.246;2023-09-18T06:52:18;10.13;;;2.10;;
3573;SDS011;1801;51.050;6.246;2023-09-18T06:54:44;2.20;;;1.90;;
3573;SDS011;1801;51.050;6.246;2023-09-18T06:57:09;5.07;;;2.00;;
3573;SDS011;1801;51.050;6.246;2023-09-18T06:59:34;4.87;;;1.97;;
3573;SDS011;1801;51.050;6.246;2023-09-18T07:02:00;9.07;;;1.90;;
3573;SDS011;1801;51.050;6.246;2023-09-18T07:04:25;5.83;;;1.90;;
3573;SDS011;1801;51.050;6.246;2023-09-18T07:06:50;6.83;;;2.00;;
3573;SDS011;1801;51.050;6.246;2023-09-18T07:09:18;7.03;;;1.93;;
3573;SDS011;1801;51.050;6.246;2023-09-18T07:11:43;5.70;;;1.53;;
3573;SDS011;1801;51.050;6.246;2023-09-18T07:14:09;3.70;;;1.60;;
3573;SDS011;1801;51.050;6.246;2023-09-18T07:16:34;2.73;;;1.83;;
3573;SDS011;1801;51.050;6.246;2023-09-18T07:18:59;3.70;;;1.50;;
3573;SDS011;1801;51.050;6.246;2023-09-18T07:21:24;4.00;;;1.70;;
3573;SDS011;1801;51.050;6.246;2023-09-18T07:23:50;2.40;;;1.83;;
3573;SDS011;1801;51.050;6.246;2023-09-18T07:26:15;4.63;;;1.43;;
3573;SDS011;1801;51.050;6.246;2023-09-18T07:28:40;3.70;;;1.87;;
3573;SDS011;1801;51.050;6.246;2023-09-18T07:31:08;3.33;;;1.33;;
3573;SDS011;1801;51.050;6.246;2023-09-18T07:33:34;3.60;;;1.80;;
3573;SDS011;1801;51.050;6.246;2023-09-18T07:35:59;4.43;;;1.93;;
3573;SDS011;1801;51.050;6.246;2023-09-18T07:38:24;3.90;;;1.37;;
3573;SDS011;1801;51.050;6.246;2023-09-18T07:40:50;4.00;;;1.57;;
3573;SDS011;1801;51.050;6.246;2023-09-18T07:43:15;3.90;;;1.53;;
3573;SDS011;1801;51.050;6.246;2023-09-18T07:45:40;4.47;;;1.40;;
3573;SDS011;1801;51.050;6.246;2023-09-18T07:48:08;10.80;;;1.70;;
3573;SDS011;1801;51.050;6.246;2023-09-18T07:50:37;6.90;;;1.83;;
3573;SDS011;1801;51.050;6.246;2023-09-18T07:53:02;4.27;;;1.60;;
3573;SDS011;1801;51.050;6.246;2023-09-18T07:55:27;3.57;;;1.63;;
3573;SDS011;1801;51.050;6.246;2023-09-18T07:57:53;2.60;;;1.33;;
3573;SDS011;1801;51.050;6.246;2023-09-18T08:00:18;4.03;;;1.20;;
3573;SDS011;1801;51.050;6.246;2023-09-18T08:02:44;7.40;;;1.40;;
3573;SDS011;1801;51.050;6.246;2023-09-18T08:05:09;4.53;;;1.77;;
3573;SDS011;1801;51.050;6.246;2023-09-18T08:07:35;4.07;;;1.40;;
3573;SDS011;1801;51.050;6.246;2023-09-18T08:10:01;4.73;;;1.63;;
3573;SDS011;1801;51.050;6.246;2023-09-18T08:12:26;2.70;;;1.20;;
3573;SDS011;1801;51.050;6.246;2023-09-18T08:14:52;3.73;;;2.10;;
3573;SDS011;1801;51.050;6.246;2023-09-18T08:17:17;3.97;;;1.40;;
3573;SDS011;1801;51.050;6.246;2023-09-18T08:19:42;2.57;;;1.43;;
3573;SDS011;1801;51.050;6.246;2023-09-18T08:22:09;2.03;;;1.63;;
3573;SDS011;1801;51.050;6.246;2023-09-18T08:24:35;5.73;;;2.00;;
3573;SDS011;1801;51.050;6.246;2023-09-18T08:27:00;7.07;;;1.77;;
3573;SDS011;1801;51.050;6.246;2023-09-18T08:29:25;3.73;;;1.47;;
3573;SDS011;1801;51.050;6.246;2023-09-18T08:31:50;4.70;;;1.83;;
3573;SDS011;1801;51.050;6.246;2023-09-18T08:34:16;4.40;;;1.87;;
3573;SDS011;1801;51.050;6.246;2023-09-18T08:36:41;3.67;;;1.20;;
3573;SDS011;1801;51.050;6.246;2023-09-18T08:39:06;2.70;;;1.47;;
3573;SDS011;1801;51.050;6.246;2023-09-18T08:41:31;3.30;;;1.47;;
3573;SDS011;1801;51.050;6.246;2023-09-18T08:44:00;4.33;;;1.70;;
3573;SDS011;1801;51.050;6.246;2023-09-18T08:46:26;1.53;;;1.43;;
3573;SDS011;1801;51.050;6.246;2023-09-18T08:48:51;1.73;;;1.00;;
3573;SDS011;1801;51.050;6.246;2023-09-18T08:51:17;5.50;;;1.47;;
3573;SDS011;1801;51.050;6.246;2023-09-18T08:53:43;2.60;;;1.43;;
3573;SDS011;1801;51.050;6.246;2023-09-18T08:56:08;5.43;;;1.60;;
3573;SDS011;1801;51.050;6.246;2023-09-18T08:58:35;4.27;;;1.40;;
3573;SDS011;1801;51.050;6.246;2023-09-18T09:01:02;6.60;;;1.80;;
3573;SDS011;1801;51.050;6.246;2023-09-18T09:03:29;3.67;;;1.60;;
3573;SDS011;1801;51.050;6.246;2023-09-18T09:05:54;3.50;;;1.30;;
3573;SDS011;1801;51.050;6.246;2023-09-18T09:08:19;1.60;;;1.20;;
3573;SDS011;1801;51.050;6.246;2023-09-18T09:10:46;2.13;;;1.40;;
3573;SDS011;1801;51.050;6.246;2023-09-18T09:13:11;3.60;;;1.67;;
3573;SDS011;1801;51.050;6.246;2023-09-18T09:15:44;2.77;;;1.77;;
3573;SDS011;1801;51.050;6.246;2023-09-18T09:18:11;3.67;;;1.77;;
3573;SDS011;1801;51.050;6.246;2023-09-18T09:20:36;4.80;;;1.73;;
3573;SDS011;1801;51.050;6.246;2023-09-18T09:23:02;6.03;;;1.97;;
3573;SDS011;1801;51.050;6.246;2023-09-18T09:25:29;6.80;;;3.60;;
3573;SDS011;1801;51.050;6.246;2023-09-18T09:27:56;2.57;;;1.73;;
3573;SDS011;1801;51.050;6.246;2023-09-18T09:30:23;2.63;;;1.60;;
3573;SDS011;1801;51.050;6.246;2023-09-18T09:32:49;6.07;;;1.63;;
3573;SDS011;1801;51.050;6.246;2023-09-18T09:35:22;3.20;;;1.93;;
3573;SDS011;1801;51.050;6.246;2023-09-18T09:37:49;4.57;;;1.70;;
3573;SDS011;1801;51.050;6.246;2023-09-18T09:40:15;4.30;;;1.50;;
3573;SDS011;1801;51.050;6.246;2023-09-18T09:42:40;3.60;;;1.63;;
3573;SDS011;1801;51.050;6.246;2023-09-18T09:45:10;4.73;;;1.37;;
3573;SDS011;1801;51.050;6.246;2023-09-18T09:47:37;6.43;;;1.60;;
3573;SDS011;1801;51.050;6.246;2023-09-18T09:50:09;8.00;;;2.70;;
3573;SDS011;1801;51.050;6.246;2023-09-18T09:52:35;3.17;;;1.70;;
3573;SDS011;1801;51.050;6.246;2023-09-18T09:55:01;2.60;;;1.67;;
3573;SDS011;1801;51.050;6.246;2023-09-18T09:57:28;7.80;;;2.10;;
3573;SDS011;1801;51.050;6.246;2023-09-18T09:59:55;4.30;;;2.30;;
3573;SDS011;1801;51.050;6.246;2023-09-18T10:02:31;2.77;;;1.73;;
3573;SDS011;1801;51.050;6.246;2023-09-18T10:04:59;5.30;;;2.00;;
3573;SDS011;1801;51.050;6.246;2023-09-18T10:07:24;10.60;;;2.00;;
3573;SDS011;1801;51.050;6.246;2023-09-18T10:09:50;2.97;;;1.93;;
3573;SDS011;1801;51.050;6.246;2023-09-18T10:12:17;4.67;;;1.70;;
3573;SDS011;1801;51.050;6.246;2023-09-18T10:14:45;5.10;;;1.80;;
3573;SDS011;1801;51.050;6.246;2023-09-18T10:17:17;3.13;;;1.77;;
3573;SDS011;1801;51.050;6.246;2023-09-18T10:19:45;10.30;;;2.43;;
3573;SDS011;1801;51.050;6.246;2023-09-18T10:22:15;5.00;;;2.10;;
3573;SDS011;1801;51.050;6.246;2023-09-18T10:24:41;4.27;;;2.33;;
3573;SDS011;1801;51.050;6.246;2023-09-18T10:27:12;2.53;;;1.83;;
3573;SDS011;1801;51.050;6.246;2023-09-18T10:29:38;4.87;;;2.20;;
3573;SDS011;1801;51.050;6.246;2023-09-18T10:32:06;4.70;;;1.93;;
3573;SDS011;1801;51.050;6.246;2023-09-18T10:34:33;6.30;;;1.90;;
3573;SDS011;1801;51.050;6.246;2023-09-18T10:36:58;7.93;;;2.27;;
3573;SDS011;1801;51.050;6.246;2023-09-18T10:39:25;2.80;;;2.30;;
3573;SDS011;1801;51.050;6.246;2023-09-18T10:41:55;2.90;;;2.37;;
3573;SDS011;1801;51.050;6.246;2023-09-18T10:44:26;2.50;;;2.00;;
3573;SDS011;1801;51.050;6.246;2023-09-18T10:46:52;2.80;;;2.00;;
3573;SDS011;1801;51.050;6.246;2023-09-18T10:49:18;6.70;;;2.27;;
3573;SDS011;1801;51.050;6.246;2023-09-18T10:51:44;7.30;;;2.20;;
3573;SDS011;1801;51.050;6.246;2023-09-18T10:54:11;2.50;;;2.00;;
3573;SDS011;1801;51.050;6.246;2023-09-18T10:56:36;6.67;;;3.30;;
3573;SDS011;1801;51.050;6.246;2023-09-18T10:59:02;3.40;;;2.20;;
3573;SDS011;1801;51.050;6.246;2023-09-18T11:01:31;10.07;;;2.50;;
3573;SDS011;1801;51.050;6.246;2023-09-18T11:03:57;9.00;;;2.00;;
3573;SDS011;1801;51.050;6.246;2023-09-18T11:06:24;3.90;;;2.00;;
3573;SDS011;1801;51.050;6.246;2023-09-18T11:08:51;6.03;;;2.17;;
3573;SDS011;1801;51.050;6.246;2023-09-18T11:11:18;5.30;;;2.07;;
3573;SDS011;1801;51.050;6.246;2023-09-18T11:13:51;4.10;;;2.20;;
3573;SDS011;1801;51.050;6.246;2023-09-18T11:18:51;8.60;;;3.13;;
3573;SDS011;1801;51.050;6.246;2023-09-18T11:21:53;5.10;;;2.30;;
3573;SDS011;1801;51.050;6.246;2023-09-18T11:24:15;4.83;;;2.80;;
3573;SDS011;1801;51.050;6.246;2023-09-18T11:26:42;8.30;;;2.20;;
3573;SDS011;1801;51.050;6.246;2023-09-18T11:29:08;6.27;;;2.40;;
3573;SDS011;1801;51.050;6.246;2023-09-18T11:34:22;5.93;;;2.10;;
3573;SDS011;1801;51.050;6.246;2023-09-18T11:36:48;4.10;;;2.57;;
3573;SDS011;1801;51.050;6.246;2023-09-18T11:39:14;3.70;;;2.33;;
3573;SDS011;1801;51.050;6.246;2023-09-18T11:42:06;3.83;;;2.43;;
3573;SDS011;1801;51.050;6.246;2023-09-18T11:44:31;6.63;;;2.30;;
3573;SDS011;1801;51.050;6.246;2023-09-18T11:46:57;2.77;;;2.10;;
3573;SDS011;1801;51.050;6.246;2023-09-18T11:49:25;3.63;;;1.80;;
3573;SDS011;1801;51.050;6.246;2023-09-18T11:51:53;6.90;;;2.53;;
3573;SDS011;1801;51.050;6.246;2023-09-18T11:54:19;6.33;;;2.40;;
3573;SDS011;1801;51.050;6.246;2023-09-18T11:56:46;4.70;;;2.33;;
3573;SDS011;1801;51.050;6.246;2023-09-18T11:59:11;2.67;;;1.87;;
3573;SDS011;1801;51.050;6.246;2023-09-18T12:01:37;2.80;;;1.63;;
3573;SDS011;1801;51.050;6.246;2023-09-18T12:04:04;5.10;;;2.00;;
3573;SDS011;1801;51.050;6.246;2023-09-18T12:06:34;4.87;;;2.10;;
3573;SDS011;1801;51.050;6.246;2023-09-18T12:08:59;9.37;;;2.10;;
3573;SDS011;1801;51.050;6.246;2023-09-18T12:11:24;5.27;;;2.50;;
3573;SDS011;1801;51.050;6.246;2023-09-18T12:13:50;2.50;;;1.80;;
3573;SDS011;1801;51.050;6.246;2023-09-18T12:16:16;5.93;;;1.83;;
3573;SDS011;1801;51.050;6.246;2023-09-18T12:18:47;4.83;;;1.77;;
3573;SDS011;1801;51.050;6.246;2023-09-18T12:21:15;3.17;;;2.00;;
3573;SDS011;1801;51.050;6.246;2023-09-18T12:23:42;3.20;;;1.80;;
3573;SDS011;1801;51.050;6.246;2023-09-18T12:26:09;2.27;;;1.67;;
3573;SDS011;1801;51.050;6.246;2023-09-18T12:28:35;4.30;;;2.20;;
3573;SDS011;1801;51.050;6.246;2023-09-18T12:31:00;5.43;;;2.80;;
3573;SDS011;1801;51.050;6.246;2023-09-18T12:33:29;2.50;;;1.50;;
3573;SDS011;1801;51.050;6.246;2023-09-18T12:35:56;2.70;;;1.77;;
3573;SDS011;1801;51.050;6.246;2023-09-18T12:38:21;8.80;;;2.43;;
3573;SDS011;1801;51.050;6.246;2023-09-18T12:40:54;7.93;;;2.30;;
3573;SDS011;1801;51.050;6.246;2023-09-18T12:43:20;2.57;;;1.90;;
3573;SDS011;1801;51.050;6.246;2023-09-18T12:45:47;4.37;;;1.90;;
3573;SDS011;1801;51.050;6.246;2023-09-18T12:48:14;2.70;;;1.93;;
3573;SDS011;1801;51.050;6.246;2023-09-18T12:50:39;4.60;;;2.00;;
3573;SDS011;1801;51.050;6.246;2023-09-18T12:53:08;3.90;;;1.90;;
3573;SDS011;1801;51.050;6.246;2023-09-18T12:55:33;4.00;;;2.57;;
3573;SDS011;1801;51.050;6.246;2023-09-18T12:57:59;4.40;;;2.40;;
3573;SDS011;1801;51.050;6.246;2023-09-18T13:00:25;3.17;;;2.07;;
3573;SDS011;1801;51.050;6.246;2023-09-18T13:02:51;3.47;;;1.97;;
3573;SDS011;1801;51.050;6.246;2023-09-18T13:05:20;5.47;;;2.20;;
3573;SDS011;1801;51.050;6.246;2023-09-18T13:07:45;4.97;;;2.07;;
3573;SDS011;1801;51.050;6.246;2023-09-18T13:10:12;5.40;;;2.03;;
3573;SDS011;1801;51.050;6.246;2023-09-18T13:12:40;3.90;;;1.90;;
3573;SDS011;1801;51.050;6.246;2023-09-18T13:15:05;5.40;;;2.23;;
3573;SDS011;1801;51.050;6.246;2023-09-18T13:17:44;5.30;;;2.37;;
3573;SDS011;1801;51.050;6.246;2023-09-18T13:20:11;3.23;;;1.90;;
3573;SDS011;1801;51.050;6.246;2023-09-18T13:22:36;8.30;;;2.97;;
3573;SDS011;1801;51.050;6.246;2023-09-18T13:25:02;4.87;;;2.40;;
3573;SDS011;1801;51.050;6.246;2023-09-18T13:27:27;5.13;;;2.00;;
3573;SDS011;1801;51.050;6.246;2023-09-18T13:29:52;8.10;;;1.77;;
3573;SDS011;1801;51.050;6.246;2023-09-18T13:32:19;2.80;;;1.50;;
3573;SDS011;1801;51.050;6.246;2023-09-18T13:34:44;5.30;;;2.20;;
3573;SDS011;1801;51.050;6.246;2023-09-18T13:37:10;3.20;;;1.90;;
3573;SDS011;1801;51.050;6.246;2023-09-18T13:39:35;3.70;;;1.97;;
3573;SDS011;1801;51.050;6.246;2023-09-18T13:42:01;7.00;;;1.80;;
3573;SDS011;1801;51.050;6.246;2023-09-18T13:44:27;3.30;;;1.97;;
3573;SDS011;1801;51.050;6.246;2023-09-18T13:46:53;3.30;;;2.00;;
3573;SDS011;1801;51.050;6.246;2023-09-18T13:49:18;3.83;;;1.77;;
3573;SDS011;1801;51.050;6.246;2023-09-18T13:51:43;4.80;;;1.80;;
3573;SDS011;1801;51.050;6.246;2023-09-18T13:54:11;8.30;;;1.90;;
3573;SDS011;1801;51.050;6.246;2023-09-18T13:56:37;3.53;;;2.07;;
3573;SDS011;1801;51.050;6.246;2023-09-18T13:59:02;6.20;;;2.30;;
3573;SDS011;1801;51.050;6.246;2023-09-18T14:01:27;3.77;;;2.13;;
3573;SDS011;1801;51.050;6.246;2023-09-18T14:03:53;3.77;;;2.53;;
3573;SDS011;1801;51.050;6.246;2023-09-18T14:06:18;3.60;;;1.70;;
3573;SDS011;1801;51.050;6.246;2023-09-18T14:08:43;7.30;;;2.33;;
3573;SDS011;1801;51.050;6.246;2023-09-18T14:11:09;5.87;;;2.10;;
3573;SDS011;1801;51.050;6.246;2023-09-18T14:13:34;5.93;;;2.30;;
3573;SDS011;1801;51.050;6.246;2023-09-18T14:15:59;4.70;;;1.93;;
3573;SDS011;1801;51.050;6.246;2023-09-18T14:18:28;4.50;;;2.03;;
3573;SDS011;1801;51.050;6.246;2023-09-18T14:20:54;3.70;;;1.97;;
3573;SDS011;1801;51.050;6.246;2023-09-18T14:23:19;5.60;;;1.90;;
3573;SDS011;1801;51.050;6.246;2023-09-18T14:25:44;2.20;;;1.80;;
3573;SDS011;1801;51.050;6.246;2023-09-18T14:28:09;2.93;;;1.77;;
3573;SDS011;1801;51.050;6.246;2023-09-18T14:30:35;6.83;;;2.30;;
3573;SDS011;1801;51.050;6.246;2023-09-18T14:33:00;6.77;;;2.43;;
3573;SDS011;1801;51.050;6.246;2023-09-18T14:35:26;4.30;;;1.77;;
3573;SDS011;1801;51.050;6.246;2023-09-18T14:37:51;6.80;;;2.00;;
3573;SDS011;1801;51.050;6.246;2023-09-18T14:40:16;5.67;;;2.17;;
3573;SDS011;1801;51.050;6.246;2023-09-18T14:42:42;3.40;;;1.50;;
3573;SDS011;1801;51.050;6.246;2023-09-18T14:45:07;2.80;;;1.90;;
3573;SDS011;1801;51.050;6.246;2023-09-18T14:47:33;4.07;;;2.30;;
3573;SDS011;1801;51.050;6.246;2023-09-18T14:49:59;4.00;;;1.80;;
3573;SDS011;1801;51.050;6.246;2023-09-18T14:52:26;2.93;;;1.67;;
3573;SDS011;1801;51.050;6.246;2023-09-18T14:54:51;4.83;;;2.07;;
3573;SDS011;1801;51.050;6.246;2023-09-18T14:57:17;5.37;;;2.27;;
3573;SDS011;1801;51.050;6.246;2023-09-18T14:59:42;3.80;;;2.40;;
3573;SDS011;1801;51.050;6.246;2023-09-18T15:02:12;3.27;;;2.20;;
3573;SDS011;1801;51.050;6.246;2023-09-18T15:04:37;2.27;;;1.80;;
3573;SDS011;1801;51.050;6.246;2023-09-18T15:07:02;11.20;;;3.00;;
3573;SDS011;1801;51.050;6.246;2023-09-18T15:09:28;5.70;;;1.83;;
3573;SDS011;1801;51.050;6.246;2023-09-18T15:11:53;4.80;;;2.00;;
3573;SDS011;1801;51.050;6.246;2023-09-18T15:14:18;4.33;;;2.20;;